sensor_id;sensor_type;location;lat;lon;timestamp;P1;durP1;ratioP1;P2;durP2;ratioP2
6193;SDS011;3130;41.564;23.280;2023-02-08T00:01:48;13.27;;;8.53;;
6193;SDS011;3130;41.564;23.280;2023-02-08T00:04:15;11.23;;;7.23;;
6193;SDS011;3130;41.564;23.280;2023-02-08T00:06:43;14.77;;;7.87;;
6193;SDS011;3130;41.564;23.280;2023-02-08T00:09:11;8.33;;;6.50;;
6193;SDS011;3130;41.564;23.280;2023-02-08T00:11:38;9.60;;;6.37;;
6193;SDS011;3130;41.564;23.280;2023-02-08T00:14:05;9.97;;;5.93;;
6193;SDS011;3130;41.564;23.280;2023-02-08T00:16:33;9.37;;;5.80;;
6193;SDS011;3130;41.564;23.280;2023-02-08T00:19:00;11.73;;;5.90;;
6193;SDS011;3130;41.564;23.280;2023-02-08T00:21:28;9.60;;;6.53;;
6193;SDS011;3130;41.564;23.280;2023-02-08T00:23:56;10.77;;;5.97;;
6193;SDS011;3130;41.564;23.280;2023-02-08T00:26:23;10.23;;;4.70;;
6193;SDS011;3130;41.564;23.280;2023-02-08T00:28:50;6.80;;;5.03;;
6193;SDS011;3130;41.564;23.280;2023-02-08T00:31:17;8.17;;;5.77;;
6193;SDS011;3130;41.564;23.280;2023-02-08T00:33:44;12.30;;;6.57;;
6193;SDS011;3130;41.564;23.280;2023-02-08T00:36:12;7.00;;;5.03;;
6193;SDS011;3130;41.564;23.280;2023-02-08T00:38:39;8.27;;;4.83;;
6193;SDS011;3130;41.564;23.280;2023-02-08T00:41:07;6.97;;;5.00;;
6193;SDS011;3130;41.564;23.280;2023-02-08T00:43:35;7.40;;;4.80;;
6193;SDS011;3130;41.564;23.280;2023-02-08T00:46:02;8.17;;;5.37;;
6193;SDS011;3130;41.564;23.280;2023-02-08T00:48:30;6.23;;;4.47;;
6193;SDS011;3130;41.564;23.280;2023-02-08T00:51:00;9.40;;;5.20;;
6193;SDS011;3130;41.564;23.280;2023-02-08T00:53:29;6.40;;;4.90;;
6193;SDS011;3130;41.564;23.280;2023-02-08T00:55:56;6.97;;;4.57;;
6193;SDS011;3130;41.564;23.280;2023-02-08T00:58:25;6.83;;;4.47;;
6193;SDS011;3130;41.564;23.280;2023-02-08T01:00:52;9.17;;;4.67;;
6193;SDS011;3130;41.564;23.280;2023-02-08T01:03:20;9.40;;;4.93;;
6193;SDS011;3130;41.564;23.280;2023-02-08T01:05:48;8.97;;;4.37;;
6193;SDS011;3130;41.564;23.280;2023-02-08T01:08:15;5.13;;;4.20;;
6193;SDS011;3130;41.564;23.280;2023-02-08T01:10:43;8.93;;;5.23;;
6193;SDS011;3130;41.564;23.280;2023-02-08T01:13:11;5.43;;;4.87;;
6193;SDS011;3130;41.564;23.280;2023-02-08T01:15:39;7.83;;;5.63;;
6193;SDS011;3130;41.564;23.280;2023-02-08T01:18:06;8.47;;;5.60;;
6193;SDS011;3130;41.564;23.280;2023-02-08T01:20:34;9.03;;;5.80;;
6193;SDS011;3130;41.564;23.280;2023-02-08T01:23:02;7.50;;;5.33;;
6193;SDS011;3130;41.564;23.280;2023-02-08T01:25:29;8.43;;;5.63;;
6193;SDS011;3130;41.564;23.280;2023-02-08T01:27:56;7.50;;;5.70;;
6193;SDS011;3130;41.564;23.280;2023-02-08T01:30:23;7.03;;;5.20;;
6193;SDS011;3130;41.564;23.280;2023-02-08T01:32:52;6.50;;;4.20;;
6193;SDS011;3130;41.564;23.280;2023-02-08T01:35:19;9.33;;;6.30;;
6193;SDS011;3130;41.564;23.280;2023-02-08T01:37:46;11.30;;;5.93;;
6193;SDS011;3130;41.564;23.280;2023-02-08T01:40:13;8.33;;;5.87;;
6193;SDS011;3130;41.564;23.280;2023-02-08T01:42:40;5.83;;;4.00;;
6193;SDS011;3130;41.564;23.280;2023-02-08T01:45:20;7.50;;;5.07;;
6193;SDS011;3130;41.564;23.280;2023-02-08T01:47:52;6.97;;;5.17;;
6193;SDS011;3130;41.564;23.280;2023-02-08T01:50:25;5.07;;;4.30;;
6193;SDS011;3130;41.564;23.280;2023-02-08T01:52:57;7.80;;;4.77;;
6193;SDS011;3130;41.564;23.280;2023-02-08T01:55:26;8.93;;;5.23;;
6193;SDS011;3130;41.564;23.280;2023-02-08T01:57:58;9.30;;;4.90;;
6193;SDS011;3130;41.564;23.280;2023-02-08T02:00:31;5.97;;;4.87;;
6193;SDS011;3130;41.564;23.280;2023-02-08T02:03:00;6.80;;;5.00;;
6193;SDS011;3130;41.564;23.280;2023-02-08T02:05:31;10.40;;;6.03;;
6193;SDS011;3130;41.564;23.280;2023-02-08T02:08:04;7.17;;;3.93;;
6193;SDS011;3130;41.564;23.280;2023-02-08T02:10:32;7.00;;;4.50;;
6193;SDS011;3130;41.564;23.280;2023-02-08T02:13:01;7.10;;;5.20;;
6193;SDS011;3130;41.564;23.280;2023-02-08T02:15:31;6.00;;;5.40;;
6193;SDS011;3130;41.564;23.280;2023-02-08T02:18:00;7.87;;;4.10;;
6193;SDS011;3130;41.564;23.280;2023-02-08T02:20:33;8.93;;;4.83;;
6193;SDS011;3130;41.564;23.280;2023-02-08T02:23:21;7.13;;;3.87;;
6193;SDS011;3130;41.564;23.280;2023-02-08T02:26:13;6.60;;;4.77;;
6193;SDS011;3130;41.564;23.280;2023-02-08T02:29:08;7.77;;;5.23;;
6193;SDS011;3130;41.564;23.280;2023-02-08T02:31:58;7.67;;;4.20;;
6193;SDS011;3130;41.564;23.280;2023-02-08T02:34:37;4.50;;;4.07;;
6193;SDS011;3130;41.564;23.280;2023-02-08T02:37:10;8.37;;;4.87;;
6193;SDS011;3130;41.564;23.280;2023-02-08T02:39:47;6.17;;;4.53;;
6193;SDS011;3130;41.564;23.280;2023-02-08T02:42:25;7.77;;;4.43;;
6193;SDS011;3130;41.564;23.280;2023-02-08T02:45:17;4.37;;;3.80;;
6193;SDS011;3130;41.564;23.280;2023-02-08T02:47:53;5.93;;;4.93;;
6193;SDS011;3130;41.564;23.280;2023-02-08T02:50:28;9.60;;;5.27;;
6193;SDS011;3130;41.564;23.280;2023-02-08T02:53:00;12.43;;;4.67;;
6193;SDS011;3130;41.564;23.280;2023-02-08T02:55:33;5.60;;;4.10;;
6193;SDS011;3130;41.564;23.280;2023-02-08T02:58:06;7.37;;;5.03;;
6193;SDS011;3130;41.564;23.280;2023-02-08T03:00:37;7.83;;;4.57;;
6193;SDS011;3130;41.564;23.280;2023-02-08T03:03:08;10.03;;;5.20;;
6193;SDS011;3130;41.564;23.280;2023-02-08T03:05:43;7.30;;;4.77;;
6193;SDS011;3130;41.564;23.280;2023-02-08T03:08:15;7.67;;;3.97;;
6193;SDS011;3130;41.564;23.280;2023-02-08T03:10:57;6.97;;;4.87;;
6193;SDS011;3130;41.564;23.280;2023-02-08T03:13:42;7.83;;;5.30;;
6193;SDS011;3130;41.564;23.280;2023-02-08T03:16:23;6.30;;;4.20;;
6193;SDS011;3130;41.564;23.280;2023-02-08T03:19:03;5.57;;;4.40;;
6193;SDS011;3130;41.564;23.280;2023-02-08T03:21:37;5.70;;;4.63;;
6193;SDS011;3130;41.564;23.280;2023-02-08T03:24:13;7.33;;;5.03;;
6193;SDS011;3130;41.564;23.280;2023-02-08T03:26:51;5.00;;;4.50;;
6193;SDS011;3130;41.564;23.280;2023-02-08T03:29:24;7.57;;;4.93;;
6193;SDS011;3130;41.564;23.280;2023-02-08T03:32:03;9.23;;;4.07;;
6193;SDS011;3130;41.564;23.280;2023-02-08T03:34:37;6.43;;;4.27;;
6193;SDS011;3130;41.564;23.280;2023-02-08T03:37:12;5.20;;;4.17;;
6193;SDS011;3130;41.564;23.280;2023-02-08T03:39:45;6.80;;;4.63;;
6193;SDS011;3130;41.564;23.280;2023-02-08T03:42:15;5.00;;;4.53;;
6193;SDS011;3130;41.564;23.280;2023-02-08T03:44:50;5.87;;;4.27;;
6193;SDS011;3130;41.564;23.280;2023-02-08T03:47:23;7.80;;;4.87;;
6193;SDS011;3130;41.564;23.280;2023-02-08T03:49:55;4.90;;;4.50;;
6193;SDS011;3130;41.564;23.280;2023-02-08T03:52:26;8.93;;;3.97;;
6193;SDS011;3130;41.564;23.280;2023-02-08T03:54:56;7.87;;;5.07;;
6193;SDS011;3130;41.564;23.280;2023-02-08T03:57:28;7.73;;;5.13;;
6193;SDS011;3130;41.564;23.280;2023-02-08T03:59:59;6.00;;;3.97;;
6193;SDS011;3130;41.564;23.280;2023-02-08T04:02:28;6.47;;;4.50;;
6193;SDS011;3130;41.564;23.280;2023-02-08T04:04:59;8.57;;;5.10;;
6193;SDS011;3130;41.564;23.280;2023-02-08T04:07:28;10.70;;;6.10;;
6193;SDS011;3130;41.564;23.280;2023-02-08T04:09:55;11.50;;;6.50;;
6193;SDS011;3130;41.564;23.280;2023-02-08T04:12:22;11.07;;;6.37;;
6193;SDS011;3130;41.564;23.280;2023-02-08T04:14:50;9.70;;;6.27;;
6193;SDS011;3130;41.564;23.280;2023-02-08T04:17:17;10.60;;;7.27;;
6193;SDS011;3130;41.564;23.280;2023-02-08T04:19:45;6.93;;;4.90;;
6193;SDS011;3130;41.564;23.280;2023-02-08T04:22:13;6.90;;;4.57;;
6193;SDS011;3130;41.564;23.280;2023-02-08T04:24:40;8.40;;;5.60;;
6193;SDS011;3130;41.564;23.280;2023-02-08T04:27:08;9.77;;;6.37;;
6193;SDS011;3130;41.564;23.280;2023-02-08T04:29:35;10.27;;;6.03;;
6193;SDS011;3130;41.564;23.280;2023-02-08T04:32:02;7.53;;;4.90;;
6193;SDS011;3130;41.564;23.280;2023-02-08T04:34:32;7.53;;;5.40;;
6193;SDS011;3130;41.564;23.280;2023-02-08T04:36:59;8.27;;;5.47;;
6193;SDS011;3130;41.564;23.280;2023-02-08T04:39:28;7.47;;;4.67;;
6193;SDS011;3130;41.564;23.280;2023-02-08T04:41:55;5.67;;;4.73;;
6193;SDS011;3130;41.564;23.280;2023-02-08T04:44:22;7.83;;;4.17;;
6193;SDS011;3130;41.564;23.280;2023-02-08T04:46:49;6.87;;;4.13;;
6193;SDS011;3130;41.564;23.280;2023-02-08T04:49:16;9.63;;;4.50;;
6193;SDS011;3130;41.564;23.280;2023-02-08T04:51:44;6.83;;;5.30;;
6193;SDS011;3130;41.564;23.280;2023-02-08T04:54:11;5.83;;;4.77;;
6193;SDS011;3130;41.564;23.280;2023-02-08T04:56:39;6.83;;;5.60;;
6193;SDS011;3130;41.564;23.280;2023-02-08T04:59:07;8.07;;;4.97;;
6193;SDS011;3130;41.564;23.280;2023-02-08T05:01:34;5.07;;;4.13;;
6193;SDS011;3130;41.564;23.280;2023-02-08T05:04:01;9.07;;;5.33;;
6193;SDS011;3130;41.564;23.280;2023-02-08T05:06:28;6.50;;;4.50;;
6193;SDS011;3130;41.564;23.280;2023-02-08T05:08:55;4.53;;;3.70;;
6193;SDS011;3130;41.564;23.280;2023-02-08T05:11:23;4.30;;;3.43;;
6193;SDS011;3130;41.564;23.280;2023-02-08T05:13:52;7.60;;;5.17;;
6193;SDS011;3130;41.564;23.280;2023-02-08T05:16:20;4.67;;;4.17;;
6193;SDS011;3130;41.564;23.280;2023-02-08T05:18:47;6.37;;;4.37;;
6193;SDS011;3130;41.564;23.280;2023-02-08T05:21:14;7.03;;;4.20;;
6193;SDS011;3130;41.564;23.280;2023-02-08T05:23:41;6.80;;;4.10;;
6193;SDS011;3130;41.564;23.280;2023-02-08T05:26:09;9.07;;;4.63;;
6193;SDS011;3130;41.564;23.280;2023-02-08T05:28:37;6.17;;;5.33;;
6193;SDS011;3130;41.564;23.280;2023-02-08T05:31:12;5.63;;;4.63;;
6193;SDS011;3130;41.564;23.280;2023-02-08T05:33:42;5.50;;;4.27;;
6193;SDS011;3130;41.564;23.280;2023-02-08T05:36:12;10.07;;;4.90;;
6193;SDS011;3130;41.564;23.280;2023-02-08T05:38:40;7.13;;;5.80;;
6193;SDS011;3130;41.564;23.280;2023-02-08T05:41:07;10.27;;;4.57;;
6193;SDS011;3130;41.564;23.280;2023-02-08T05:43:35;4.77;;;4.30;;
6193;SDS011;3130;41.564;23.280;2023-02-08T05:46:02;10.60;;;5.90;;
6193;SDS011;3130;41.564;23.280;2023-02-08T05:48:31;8.17;;;5.03;;
6193;SDS011;3130;41.564;23.280;2023-02-08T05:50:58;8.53;;;5.23;;
6193;SDS011;3130;41.564;23.280;2023-02-08T05:53:25;8.93;;;5.80;;
6193;SDS011;3130;41.564;23.280;2023-02-08T05:55:53;10.07;;;5.63;;
6193;SDS011;3130;41.564;23.280;2023-02-08T05:58:20;11.40;;;6.30;;
6193;SDS011;3130;41.564;23.280;2023-02-08T06:00:47;10.53;;;5.43;;
6193;SDS011;3130;41.564;23.280;2023-02-08T06:03:14;10.33;;;5.60;;
6193;SDS011;3130;41.564;23.280;2023-02-08T06:05:43;9.47;;;5.73;;
6193;SDS011;3130;41.564;23.280;2023-02-08T06:08:10;5.67;;;3.90;;
6193;SDS011;3130;41.564;23.280;2023-02-08T06:10:37;8.97;;;5.73;;
6193;SDS011;3130;41.564;23.280;2023-02-08T06:13:05;7.90;;;5.30;;
6193;SDS011;3130;41.564;23.280;2023-02-08T06:15:32;7.83;;;5.00;;
6193;SDS011;3130;41.564;23.280;2023-02-08T06:17:59;8.17;;;6.53;;
6193;SDS011;3130;41.564;23.280;2023-02-08T06:20:26;6.93;;;4.00;;
6193;SDS011;3130;41.564;23.280;2023-02-08T06:22:55;8.53;;;5.63;;
6193;SDS011;3130;41.564;23.280;2023-02-08T06:25:22;6.17;;;4.73;;
6193;SDS011;3130;41.564;23.280;2023-02-08T06:27:50;7.40;;;4.40;;
6193;SDS011;3130;41.564;23.280;2023-02-08T06:30:17;9.37;;;4.93;;
6193;SDS011;3130;41.564;23.280;2023-02-08T06:32:44;8.60;;;5.20;;
6193;SDS011;3130;41.564;23.280;2023-02-08T06:35:12;8.10;;;4.70;;
6193;SDS011;3130;41.564;23.280;2023-02-08T06:37:39;7.10;;;4.83;;
6193;SDS011;3130;41.564;23.280;2023-02-08T06:40:08;7.53;;;4.77;;
6193;SDS011;3130;41.564;23.280;2023-02-08T06:42:36;9.17;;;6.10;;
6193;SDS011;3130;41.564;23.280;2023-02-08T06:45:03;12.60;;;6.57;;
6193;SDS011;3130;41.564;23.280;2023-02-08T06:47:33;15.17;;;8.97;;
6193;SDS011;3130;41.564;23.280;2023-02-08T06:50:00;16.47;;;9.87;;
6193;SDS011;3130;41.564;23.280;2023-02-08T06:52:28;23.57;;;13.13;;
6193;SDS011;3130;41.564;23.280;2023-02-08T06:54:55;17.00;;;11.80;;
6193;SDS011;3130;41.564;23.280;2023-02-08T06:57:24;22.47;;;10.00;;
6193;SDS011;3130;41.564;23.280;2023-02-08T06:59:51;22.63;;;12.10;;
6193;SDS011;3130;41.564;23.280;2023-02-08T07:02:19;14.70;;;9.53;;
6193;SDS011;3130;41.564;23.280;2023-02-08T07:04:47;15.00;;;9.57;;
6193;SDS011;3130;41.564;23.280;2023-02-08T07:07:15;21.33;;;10.67;;
6193;SDS011;3130;41.564;23.280;2023-02-08T07:09:44;18.63;;;10.57;;
6193;SDS011;3130;41.564;23.280;2023-02-08T07:12:11;20.03;;;9.63;;
6193;SDS011;3130;41.564;23.280;2023-02-08T07:14:40;19.17;;;10.03;;
6193;SDS011;3130;41.564;23.280;2023-02-08T07:17:09;16.47;;;11.43;;
6193;SDS011;3130;41.564;23.280;2023-02-08T07:19:37;18.63;;;10.93;;
6193;SDS011;3130;41.564;23.280;2023-02-08T07:22:05;21.67;;;12.00;;
6193;SDS011;3130;41.564;23.280;2023-02-08T07:24:34;18.00;;;10.57;;
6193;SDS011;3130;41.564;23.280;2023-02-08T07:27:01;17.63;;;12.40;;
6193;SDS011;3130;41.564;23.280;2023-02-08T07:29:29;17.63;;;10.47;;
6193;SDS011;3130;41.564;23.280;2023-02-08T07:31:58;20.37;;;12.60;;
6193;SDS011;3130;41.564;23.280;2023-02-08T07:34:27;20.77;;;13.10;;
6193;SDS011;3130;41.564;23.280;2023-02-08T07:36:55;20.83;;;12.03;;
6193;SDS011;3130;41.564;23.280;2023-02-08T07:39:22;17.33;;;12.37;;
6193;SDS011;3130;41.564;23.280;2023-02-08T07:41:50;23.70;;;12.43;;
6193;SDS011;3130;41.564;23.280;2023-02-08T07:44:17;23.60;;;12.10;;
6193;SDS011;3130;41.564;23.280;2023-02-08T07:46:44;21.37;;;13.83;;
6193;SDS011;3130;41.564;23.280;2023-02-08T07:49:13;21.03;;;13.80;;
6193;SDS011;3130;41.564;23.280;2023-02-08T07:51:40;19.27;;;12.43;;
6193;SDS011;3130;41.564;23.280;2023-02-08T07:54:07;20.47;;;12.23;;
6193;SDS011;3130;41.564;23.280;2023-02-08T07:56:35;26.47;;;17.07;;
6193;SDS011;3130;41.564;23.280;2023-02-08T07:59:02;31.10;;;17.67;;
6193;SDS011;3130;41.564;23.280;2023-02-08T08:01:29;20.90;;;12.93;;
6193;SDS011;3130;41.564;23.280;2023-02-08T08:03:57;20.43;;;13.47;;
6193;SDS011;3130;41.564;23.280;2023-02-08T08:06:25;19.23;;;13.03;;
6193;SDS011;3130;41.564;23.280;2023-02-08T08:08:53;20.80;;;13.97;;
6193;SDS011;3130;41.564;23.280;2023-02-08T08:11:20;20.60;;;12.57;;
6193;SDS011;3130;41.564;23.280;2023-02-08T08:13:48;20.57;;;16.10;;
6193;SDS011;3130;41.564;23.280;2023-02-08T08:16:16;21.63;;;13.57;;
6193;SDS011;3130;41.564;23.280;2023-02-08T08:18:43;19.40;;;14.67;;
6193;SDS011;3130;41.564;23.280;2023-02-08T08:21:11;22.77;;;14.13;;
6193;SDS011;3130;41.564;23.280;2023-02-08T08:23:40;20.03;;;13.13;;
6193;SDS011;3130;41.564;23.280;2023-02-08T08:26:08;28.23;;;14.70;;
6193;SDS011;3130;41.564;23.280;2023-02-08T08:28:38;19.60;;;13.50;;
6193;SDS011;3130;41.564;23.280;2023-02-08T08:31:10;19.63;;;13.17;;
6193;SDS011;3130;41.564;23.280;2023-02-08T08:33:38;21.20;;;13.03;;
6193;SDS011;3130;41.564;23.280;2023-02-08T08:36:06;27.60;;;17.30;;
6193;SDS011;3130;41.564;23.280;2023-02-08T08:38:34;19.73;;;12.53;;
6193;SDS011;3130;41.564;23.280;2023-02-08T08:41:06;18.77;;;12.60;;
6193;SDS011;3130;41.564;23.280;2023-02-08T08:43:35;19.20;;;12.90;;
6193;SDS011;3130;41.564;23.280;2023-02-08T08:46:03;21.20;;;13.87;;
6193;SDS011;3130;41.564;23.280;2023-02-08T08:48:31;20.17;;;11.77;;
6193;SDS011;3130;41.564;23.280;2023-02-08T08:50:59;21.20;;;12.63;;
6193;SDS011;3130;41.564;23.280;2023-02-08T08:53:26;20.97;;;12.57;;
6193;SDS011;3130;41.564;23.280;2023-02-08T08:55:53;16.80;;;11.50;;
6193;SDS011;3130;41.564;23.280;2023-02-08T08:58:22;18.40;;;12.07;;
6193;SDS011;3130;41.564;23.280;2023-02-08T09:00:49;19.00;;;11.87;;
6193;SDS011;3130;41.564;23.280;2023-02-08T09:03:16;16.47;;;11.20;;
6193;SDS011;3130;41.564;23.280;2023-02-08T09:05:45;18.43;;;12.10;;
6193;SDS011;3130;41.564;23.280;2023-02-08T09:08:12;18.33;;;11.13;;
6193;SDS011;3130;41.564;23.280;2023-02-08T09:10:40;14.57;;;11.23;;
6193;SDS011;3130;41.564;23.280;2023-02-08T09:13:07;18.07;;;11.70;;
6193;SDS011;3130;41.564;23.280;2023-02-08T09:15:38;22.37;;;14.10;;
6193;SDS011;3130;41.564;23.280;2023-02-08T09:18:07;17.77;;;11.53;;
6193;SDS011;3130;41.564;23.280;2023-02-08T09:20:36;16.73;;;10.63;;
6193;SDS011;3130;41.564;23.280;2023-02-08T09:23:03;18.57;;;11.27;;
6193;SDS011;3130;41.564;23.280;2023-02-08T09:25:31;27.33;;;13.77;;
6193;SDS011;3130;41.564;23.280;2023-02-08T09:27:58;15.57;;;11.97;;
6193;SDS011;3130;41.564;23.280;2023-02-08T09:30:26;21.80;;;13.00;;
6193;SDS011;3130;41.564;23.280;2023-02-08T09:32:55;15.87;;;10.53;;
6193;SDS011;3130;41.564;23.280;2023-02-08T09:35:22;16.37;;;11.80;;
6193;SDS011;3130;41.564;23.280;2023-02-08T09:37:53;15.80;;;10.90;;
6193;SDS011;3130;41.564;23.280;2023-02-08T09:40:31;19.03;;;12.63;;
6193;SDS011;3130;41.564;23.280;2023-02-08T09:43:11;19.47;;;12.83;;
6193;SDS011;3130;41.564;23.280;2023-02-08T09:45:46;15.80;;;11.23;;
6193;SDS011;3130;41.564;23.280;2023-02-08T09:48:19;19.77;;;12.67;;
6193;SDS011;3130;41.564;23.280;2023-02-08T09:50:51;15.23;;;11.33;;
6193;SDS011;3130;41.564;23.280;2023-02-08T09:53:20;19.80;;;13.33;;
6193;SDS011;3130;41.564;23.280;2023-02-08T09:55:51;16.97;;;12.13;;
6193;SDS011;3130;41.564;23.280;2023-02-08T09:58:22;16.03;;;10.93;;
6193;SDS011;3130;41.564;23.280;2023-02-08T10:00:54;23.27;;;11.83;;
6193;SDS011;3130;41.564;23.280;2023-02-08T10:03:28;17.87;;;10.47;;
6193;SDS011;3130;41.564;23.280;2023-02-08T10:05:59;17.47;;;11.70;;
6193;SDS011;3130;41.564;23.280;2023-02-08T10:08:27;15.90;;;10.40;;
6193;SDS011;3130;41.564;23.280;2023-02-08T10:10:58;14.77;;;10.27;;
6193;SDS011;3130;41.564;23.280;2023-02-08T10:13:42;14.50;;;9.97;;
6193;SDS011;3130;41.564;23.280;2023-02-08T10:16:23;17.20;;;11.97;;
6193;SDS011;3130;41.564;23.280;2023-02-08T10:19:10;16.63;;;9.50;;
6193;SDS011;3130;41.564;23.280;2023-02-08T10:21:52;18.37;;;11.23;;
6193;SDS011;3130;41.564;23.280;2023-02-08T10:24:36;15.90;;;11.27;;
6193;SDS011;3130;41.564;23.280;2023-02-08T10:27:23;15.43;;;9.43;;
6193;SDS011;3130;41.564;23.280;2023-02-08T10:30:11;15.60;;;9.97;;
6193;SDS011;3130;41.564;23.280;2023-02-08T10:32:57;14.73;;;9.23;;
6193;SDS011;3130;41.564;23.280;2023-02-08T10:35:29;12.43;;;8.80;;
6193;SDS011;3130;41.564;23.280;2023-02-08T10:38:03;12.83;;;8.27;;
6193;SDS011;3130;41.564;23.280;2023-02-08T10:40:48;20.30;;;11.93;;
6193;SDS011;3130;41.564;23.280;2023-02-08T10:43:18;13.03;;;9.23;;
6193;SDS011;3130;41.564;23.280;2023-02-08T10:45:51;10.23;;;7.63;;
6193;SDS011;3130;41.564;23.280;2023-02-08T10:48:27;18.97;;;10.33;;
6193;SDS011;3130;41.564;23.280;2023-02-08T10:51:02;14.20;;;10.47;;
6193;SDS011;3130;41.564;23.280;2023-02-08T10:53:29;22.20;;;16.30;;
6193;SDS011;3130;41.564;23.280;2023-02-08T10:56:00;15.03;;;10.37;;
6193;SDS011;3130;41.564;23.280;2023-02-08T10:58:27;11.50;;;8.03;;
6193;SDS011;3130;41.564;23.280;2023-02-08T11:00:55;14.30;;;9.67;;
6193;SDS011;3130;41.564;23.280;2023-02-08T11:03:24;12.67;;;8.80;;
6193;SDS011;3130;41.564;23.280;2023-02-08T11:05:53;13.03;;;8.90;;
6193;SDS011;3130;41.564;23.280;2023-02-08T11:08:23;20.70;;;8.97;;
6193;SDS011;3130;41.564;23.280;2023-02-08T11:10:55;10.00;;;8.37;;
6193;SDS011;3130;41.564;23.280;2023-02-08T11:13:25;15.27;;;9.70;;
6193;SDS011;3130;41.564;23.280;2023-02-08T11:15:59;10.07;;;8.17;;
6193;SDS011;3130;41.564;23.280;2023-02-08T11:18:27;9.40;;;7.23;;
6193;SDS011;3130;41.564;23.280;2023-02-08T11:21:09;15.23;;;11.30;;
6193;SDS011;3130;41.564;23.280;2023-02-08T11:23:51;10.97;;;8.90;;
6193;SDS011;3130;41.564;23.280;2023-02-08T11:26:20;11.67;;;9.67;;
6193;SDS011;3130;41.564;23.280;2023-02-08T11:29:00;14.63;;;9.70;;
6193;SDS011;3130;41.564;23.280;2023-02-08T11:31:30;13.87;;;8.00;;
6193;SDS011;3130;41.564;23.280;2023-02-08T11:34:00;16.63;;;11.50;;
6193;SDS011;3130;41.564;23.280;2023-02-08T11:36:29;14.73;;;8.40;;
6193;SDS011;3130;41.564;23.280;2023-02-08T11:39:04;21.03;;;15.37;;
6193;SDS011;3130;41.564;23.280;2023-02-08T11:41:43;17.43;;;10.20;;
6193;SDS011;3130;41.564;23.280;2023-02-08T11:44:12;16.20;;;10.43;;
6193;SDS011;3130;41.564;23.280;2023-02-08T11:46:51;19.80;;;9.57;;
6193;SDS011;3130;41.564;23.280;2023-02-08T11:49:20;12.33;;;8.47;;
6193;SDS011;3130;41.564;23.280;2023-02-08T11:51:53;15.77;;;8.63;;
6193;SDS011;3130;41.564;23.280;2023-02-08T11:54:32;21.73;;;11.93;;
6193;SDS011;3130;41.564;23.280;2023-02-08T11:57:10;13.87;;;10.30;;
6193;SDS011;3130;41.564;23.280;2023-02-08T11:59:41;17.13;;;10.30;;
6193;SDS011;3130;41.564;23.280;2023-02-08T12:02:28;12.97;;;9.13;;
6193;SDS011;3130;41.564;23.280;2023-02-08T12:05:04;12.40;;;8.63;;
6193;SDS011;3130;41.564;23.280;2023-02-08T12:07:48;15.93;;;10.70;;
6193;SDS011;3130;41.564;23.280;2023-02-08T12:10:31;14.07;;;9.07;;
6193;SDS011;3130;41.564;23.280;2023-02-08T12:13:23;12.40;;;8.90;;
6193;SDS011;3130;41.564;23.280;2023-02-08T12:16:10;17.67;;;10.00;;
6193;SDS011;3130;41.564;23.280;2023-02-08T12:22:12;12.20;;;7.50;;
6193;SDS011;3130;41.564;23.280;2023-02-08T12:24:49;13.10;;;8.57;;
6193;SDS011;3130;41.564;23.280;2023-02-08T12:27:30;15.63;;;10.17;;
6193;SDS011;3130;41.564;23.280;2023-02-08T12:30:15;21.70;;;12.87;;
6193;SDS011;3130;41.564;23.280;2023-02-08T12:33:03;20.40;;;11.77;;
6193;SDS011;3130;41.564;23.280;2023-02-08T12:35:54;13.10;;;9.20;;
6193;SDS011;3130;41.564;23.280;2023-02-08T12:38:41;14.97;;;9.53;;
6193;SDS011;3130;41.564;23.280;2023-02-08T12:41:43;13.87;;;9.63;;
6193;SDS011;3130;41.564;23.280;2023-02-08T12:44:25;12.73;;;8.80;;
6193;SDS011;3130;41.564;23.280;2023-02-08T12:47:08;20.43;;;11.13;;
6193;SDS011;3130;41.564;23.280;2023-02-08T12:49:52;19.37;;;12.43;;
6193;SDS011;3130;41.564;23.280;2023-02-08T12:52:30;18.27;;;12.70;;
6193;SDS011;3130;41.564;23.280;2023-02-08T12:55:03;11.70;;;8.50;;
6193;SDS011;3130;41.564;23.280;2023-02-08T12:57:41;16.53;;;10.97;;
6193;SDS011;3130;41.564;23.280;2023-02-08T13:00:20;14.00;;;9.13;;
6193;SDS011;3130;41.564;23.280;2023-02-08T13:02:55;19.47;;;13.23;;
6193;SDS011;3130;41.564;23.280;2023-02-08T13:05:32;27.43;;;17.90;;
6193;SDS011;3130;41.564;23.280;2023-02-08T13:08:21;15.87;;;10.57;;
6193;SDS011;3130;41.564;23.280;2023-02-08T13:11:01;16.20;;;10.63;;
6193;SDS011;3130;41.564;23.280;2023-02-08T13:13:57;13.10;;;8.20;;
6193;SDS011;3130;41.564;23.280;2023-02-08T13:16:37;15.33;;;10.23;;
6193;SDS011;3130;41.564;23.280;2023-02-08T13:19:20;13.73;;;9.30;;
6193;SDS011;3130;41.564;23.280;2023-02-08T13:21:59;14.43;;;10.00;;
6193;SDS011;3130;41.564;23.280;2023-02-08T13:24:32;20.20;;;11.60;;
6193;SDS011;3130;41.564;23.280;2023-02-08T13:27:02;17.93;;;13.40;;
6193;SDS011;3130;41.564;23.280;2023-02-08T13:29:32;18.70;;;10.90;;
6193;SDS011;3130;41.564;23.280;2023-02-08T13:32:05;14.00;;;10.17;;
6193;SDS011;3130;41.564;23.280;2023-02-08T13:34:41;13.97;;;9.10;;
6193;SDS011;3130;41.564;23.280;2023-02-08T13:37:19;12.17;;;8.67;;
6193;SDS011;3130;41.564;23.280;2023-02-08T13:40:02;11.90;;;9.83;;
6193;SDS011;3130;41.564;23.280;2023-02-08T13:42:53;10.77;;;9.63;;
6193;SDS011;3130;41.564;23.280;2023-02-08T13:45:27;14.47;;;9.83;;
6193;SDS011;3130;41.564;23.280;2023-02-08T13:48:05;16.00;;;9.20;;
6193;SDS011;3130;41.564;23.280;2023-02-08T13:50:45;12.43;;;9.47;;
6193;SDS011;3130;41.564;23.280;2023-02-08T13:54:03;17.37;;;10.80;;
6193;SDS011;3130;41.564;23.280;2023-02-08T13:56:40;25.13;;;14.03;;
6193;SDS011;3130;41.564;23.280;2023-02-08T13:59:23;20.67;;;12.57;;
6193;SDS011;3130;41.564;23.280;2023-02-08T14:08:18;16.87;;;10.30;;
6193;SDS011;3130;41.564;23.280;2023-02-08T14:10:50;12.43;;;10.07;;
6193;SDS011;3130;41.564;23.280;2023-02-08T14:13:33;13.77;;;10.50;;
6193;SDS011;3130;41.564;23.280;2023-02-08T14:19:34;22.83;;;13.67;;
6193;SDS011;3130;41.564;23.280;2023-02-08T14:22:25;23.20;;;13.50;;
6193;SDS011;3130;41.564;23.280;2023-02-08T14:31:20;15.77;;;10.70;;
6193;SDS011;3130;41.564;23.280;2023-02-08T14:34:28;12.67;;;8.43;;
6193;SDS011;3130;41.564;23.280;2023-02-08T14:37:30;18.23;;;11.07;;
6193;SDS011;3130;41.564;23.280;2023-02-08T14:43:31;16.10;;;11.77;;
6193;SDS011;3130;41.564;23.280;2023-02-08T14:52:42;14.50;;;9.93;;
6193;SDS011;3130;41.564;23.280;2023-02-08T14:55:18;18.93;;;11.77;;
6193;SDS011;3130;41.564;23.280;2023-02-08T14:57:55;20.30;;;13.23;;
6193;SDS011;3130;41.564;23.280;2023-02-08T15:00:49;18.23;;;8.93;;
6193;SDS011;3130;41.564;23.280;2023-02-08T15:03:39;21.30;;;11.63;;
6193;SDS011;3130;41.564;23.280;2023-02-08T15:07:00;33.47;;;17.20;;
6193;SDS011;3130;41.564;23.280;2023-02-08T15:09:33;34.07;;;21.53;;
6193;SDS011;3130;41.564;23.280;2023-02-08T15:12:30;22.37;;;14.23;;
6193;SDS011;3130;41.564;23.280;2023-02-08T15:15:23;21.53;;;13.00;;
6193;SDS011;3130;41.564;23.280;2023-02-08T15:18:14;20.83;;;13.93;;
6193;SDS011;3130;41.564;23.280;2023-02-08T15:21:26;33.30;;;17.27;;
6193;SDS011;3130;41.564;23.280;2023-02-08T15:28:15;37.53;;;19.87;;
6193;SDS011;3130;41.564;23.280;2023-02-08T15:31:16;25.37;;;19.27;;
6193;SDS011;3130;41.564;23.280;2023-02-08T15:34:52;25.63;;;18.10;;
6193;SDS011;3130;41.564;23.280;2023-02-08T15:40:53;21.57;;;11.13;;
6193;SDS011;3130;41.564;23.280;2023-02-08T15:43:43;14.07;;;9.57;;
6193;SDS011;3130;41.564;23.280;2023-02-08T15:46:48;13.63;;;7.00;;
6193;SDS011;3130;41.564;23.280;2023-02-08T15:49:34;17.20;;;10.13;;
6193;SDS011;3130;41.564;23.280;2023-02-08T15:52:19;14.90;;;9.00;;
6193;SDS011;3130;41.564;23.280;2023-02-08T15:55:05;14.33;;;9.27;;
6193;SDS011;3130;41.564;23.280;2023-02-08T15:58:01;16.87;;;10.13;;
6193;SDS011;3130;41.564;23.280;2023-02-08T16:00:41;15.37;;;9.23;;
6193;SDS011;3130;41.564;23.280;2023-02-08T16:03:26;16.53;;;11.70;;